Time;durP1;ratioP1;P1;durP2;ratioP2;P2;SDS_P1;SDS_P2;PMS_P1;PMS_P2;Temp;Humidity;BMP_temperature;BMP_pressure;BME280_temperature;BME280_humidity;BME280_pressure;Samples;Min_cycle;Max_cycle;Signal;HPM_P1;HPM_P2
2021/11/18 00:03:15;;;;;;;31.30;19.70;;;;;;;5.27;81.99;99093.20;422778;1310;99288;-41
2021/11/18 00:13:26;;;;;;;32.60;18.50;;;;;;;5.40;82.00;99084.95;422658;1307;112551;-41
2021/11/18 00:23:36;;;;;;;39.30;20.70;;;;;;;5.46;81.90;99091.56;422577;1306;107682;-43
2021/11/18 00:43:51;;;;;;;22.70;14.50;;;;;;;5.19;81.89;99095.60;422779;1306;108251;-41
2021/11/18 00:54:06;;;;;;;30.60;14.50;;;;;;;5.22;81.87;99088.98;422826;1310;99386;-39
2021/11/18 01:04:13;;;;;;;21.80;14.30;;;;;;;5.24;81.91;99088.58;422764;1306;112467;-41
2021/11/18 01:14:21;;;;;;;31.20;19.10;;;;;;;5.28;82.19;99094.38;418721;1308;5490811;-41
2021/11/18 01:24:30;;;;;;;35.00;20.30;;;;;;;5.19;82.07;99098.27;422895;1310;99279;-41
2021/11/18 01:34:37;;;;;;;35.40;20.40;;;;;;;5.06;82.13;99098.51;422858;1307;108901;-41
2021/11/18 01:44:48;;;;;;;25.40;16.50;;;;;;;5.03;82.18;99107.55;422460;1306;98310;-41
2021/11/18 01:54:55;;;;;;;26.40;18.70;;;;;;;5.09;82.32;99106.25;422881;1307;112169;-40
2021/11/18 02:05:09;;;;;;;30.90;17.80;;;;;;;5.16;82.27;99118.10;422460;1310;108934;-39
2021/11/18 02:15:21;;;;;;;33.90;21.20;;;;;;;5.19;82.46;99122.09;422651;1307;99291;-40
2021/11/18 02:25:27;;;;;;;38.20;21.00;;;;;;;5.14;82.66;99132.64;423317;1296;108889;-40
2021/11/18 02:35:36;;;;;;;50.00;28.00;;;;;;;5.04;82.76;99149.70;423234;1304;99263;-40
2021/11/18 02:45:46;;;;;;;29.10;17.40;;;;;;;5.01;82.81;99153.89;423104;1304;112647;-41
2021/11/18 02:55:54;;;;;;;32.90;17.60;;;;;;;5.04;82.91;99156.91;423084;1307;108980;-41
2021/11/18 03:06:03;;;;;;;22.90;14.40;;;;;;;5.06;83.08;99160.73;423073;1303;98909;-40
2021/11/18 03:16:13;;;;;;;25.00;15.10;;;;;;;5.04;83.44;99162.11;423188;1303;109002;-41
2021/11/18 03:26:24;;;;;;;20.80;12.20;;;;;;;5.09;83.72;99178.88;423125;1308;98929;-41
2021/11/18 03:36:32;;;;;;;22.30;13.20;;;;;;;5.13;83.86;99183.11;423083;1303;112551;-40
2021/11/18 03:46:44;;;;;;;20.70;14.70;;;;;;;5.12;84.29;99189.64;423084;1303;109098;-41
2021/11/18 03:56:52;;;;;;;23.30;13.60;;;;;;;5.09;84.47;99190.44;422882;1303;98055;-41
2021/11/18 04:07:00;;;;;;;22.50;11.20;;;;;;;5.07;84.62;99190.06;423104;1303;108874;-41
2021/11/18 04:17:06;;;;;;;24.50;12.90;;;;;;;5.11;84.53;99199.42;423019;1303;98976;-44
2021/11/18 04:27:15;;;;;;;29.40;14.90;;;;;;;5.12;84.53;99198.06;423025;1303;112496;-42
2021/11/18 04:37:23;;;;;;;29.10;15.40;;;;;;;5.01;84.60;99209.34;423221;1303;108801;-42
2021/11/18 04:47:30;;;;;;;23.00;13.50;;;;;;;4.98;84.53;99205.82;422657;1304;98005;-40
2021/11/18 04:57:39;;;;;;;27.10;13.10;;;;;;;5.02;84.48;99207.69;422865;1303;109091;-41
2021/11/18 05:07:46;;;;;;;22.70;14.00;;;;;;;5.07;84.47;99210.58;422888;1303;99283;-40
2021/11/18 05:17:54;;;;;;;21.80;12.60;;;;;;;5.09;84.42;99213.14;422857;1303;112708;-40
2021/11/18 05:28:02;;;;;;;33.50;16.20;;;;;;;5.06;84.45;99215.41;422939;1303;109110;-41
2021/11/18 05:38:11;;;;;;;31.80;16.00;;;;;;;4.96;84.45;99220.02;423034;1303;99287;-41
2021/11/18 05:48:19;;;;;;;21.90;12.70;;;;;;;4.98;84.44;99226.58;422882;1303;109113;-41
2021/11/18 05:58:27;;;;;;;21.00;10.60;;;;;;;5.09;84.49;99234.40;422893;1303;98199;-40
2021/11/18 06:08:41;;;;;;;26.20;14.60;;;;;;;5.19;84.46;99239.84;422562;1306;112477;-40
2021/11/18 06:18:49;;;;;;;29.80;14.70;;;;;;;5.30;84.52;99239.63;422756;1303;108841;-40
2021/11/18 06:28:58;;;;;;;37.60;17.00;;;;;;;5.26;84.56;99245.99;422838;1303;99012;-41
2021/11/18 06:39:05;;;;;;;28.90;16.70;;;;;;;5.26;84.46;99247.73;422490;1306;108981;-41
2021/11/18 06:49:18;;;;;;;57.80;35.80;;;;;;;5.35;84.43;99256.14;422762;1304;98528;-40
2021/11/18 06:59:25;;;;;;;34.40;16.70;;;;;;;5.48;84.55;99262.32;422690;1303;112510;-40
2021/11/18 07:09:37;;;;;;;34.20;19.20;;;;;;;5.52;84.46;99275.44;422854;1303;108838;-39
2021/11/18 07:19:46;;;;;;;34.30;16.60;;;;;;;5.47;84.45;99281.31;422770;1303;99833;-39
2021/11/18 07:29:53;;;;;;;37.50;18.40;;;;;;;5.50;84.36;99298.38;422464;1303;110304;-39
2021/11/18 07:40:01;;;;;;;28.40;12.30;;;;;;;5.63;84.37;99289.58;422903;1303;98303;-40
2021/11/18 07:50:12;;;;;;;23.90;12.50;;;;;;;5.89;84.37;99281.34;422945;1303;112134;-41
2021/11/18 08:00:15;;;;;;;34.20;16.60;;;;;;;6.07;84.24;99289.00;422784;1303;108919;-41
2021/11/18 08:10:22;;;;;;;36.40;16.10;;;;;;;6.25;84.26;99296.52;422851;1303;99116;-39
2021/11/18 08:20:32;;;;;;;18.90;9.40;;;;;;;6.31;83.95;99302.35;422865;1303;108864;-40
2021/11/18 08:40:50;;;;;;;22.30;7.40;;;;;;;6.40;83.69;99320.96;422959;1303;112327;-40
2021/11/18 08:50:58;;;;;;;28.10;10.50;;;;;;;6.31;83.17;99339.48;422710;1303;108914;-41
2021/11/18 09:01:10;;;;;;;21.90;9.10;;;;;;;6.42;83.20;99350.20;422741;1303;99277;-41
2021/11/18 09:11:19;;;;;;;34.70;13.70;;;;;;;6.51;83.10;99351.15;418962;1303;5553038;-40
2021/11/18 09:21:28;;;;;;;21.30;9.10;;;;;;;6.49;82.72;99367.30;422947;1302;99297;-41
2021/11/18 09:31:36;;;;;;;19.20;9.40;;;;;;;6.54;82.09;99375.51;422885;1303;112510;-41
2021/11/18 09:42:02;;;;;;;15.70;7.90;;;;;;;6.72;81.90;99374.50;422774;1303;108833;-40
2021/11/18 09:52:16;;;;;;;23.20;10.90;;;;;;;6.80;82.03;99371.58;422894;1303;99808;-41
2021/11/18 10:02:57;;;;;;;21.30;7.50;;;;;;;6.74;81.27;99370.88;422795;1303;108839;-41
2021/11/18 10:13:51;;;;;;;14.20;7.10;;;;;;;6.77;81.21;99369.48;422756;1303;98982;-40
2021/11/18 10:24:01;;;;;;;23.60;8.70;;;;;;;6.72;81.21;99362.86;422784;1303;112548;-40
2021/11/18 10:34:09;;;;;;;15.20;6.40;;;;;;;6.63;80.76;99344.44;422710;1303;109014;-40
2021/11/18 10:44:16;;;;;;;16.80;7.50;;;;;;;6.71;80.95;99339.91;422903;1303;98997;-41
2021/11/18 10:54:40;;;;;;;27.00;9.80;;;;;;;6.64;80.73;99346.32;422860;1303;108825;-40
2021/11/18 11:04:49;;;;;;;18.30;7.60;;;;;;;6.63;80.70;99338.77;422885;1303;99330;-41
2021/11/18 11:15:29;;;;;;;13.00;6.30;;;;;;;7.00;80.62;99333.18;422925;1302;111211;-40
2021/11/18 11:25:50;;;;;;;15.50;6.50;;;;;;;7.21;79.85;99340.60;422791;1303;108867;-40
2021/11/18 11:36:01;;;;;;;14.30;7.40;;;;;;;7.25;79.40;99326.15;422816;1303;99329;-42
2021/11/18 11:46:27;;;;;;;17.00;8.00;;;;;;;7.32;79.25;99340.65;422894;1303;109102;-40
2021/11/18 11:56:37;;;;;;;16.60;7.00;;;;;;;7.18;79.13;99361.42;422819;1303;98320;-40
2021/11/18 12:06:49;;;;;;;13.70;5.90;;;;;;;7.07;78.99;99354.00;422784;1303;112276;-41
2021/11/18 12:16:58;;;;;;;26.70;9.10;;;;;;;7.01;78.82;99353.62;423143;1303;108978;-40
2021/11/18 12:27:04;;;;;;;18.40;7.40;;;;;;;7.02;78.86;99343.11;422762;1303;99285;-41
2021/11/18 12:37:15;;;;;;;13.60;5.40;;;;;;;7.02;78.58;99332.79;422807;1303;109113;-41
2021/11/18 12:47:44;;;;;;;18.90;6.50;;;;;;;7.18;78.61;99297.81;422970;1303;98835;-41
2021/11/18 12:57:54;;;;;;;17.30;7.00;;;;;;;7.26;78.56;99303.96;422537;1303;112123;-41
2021/11/18 13:18:43;;;;;;;16.30;6.20;;;;;;;7.26;77.66;99305.06;422885;1303;98107;-42
2021/11/18 13:28:59;;;;;;;20.60;8.70;;;;;;;7.37;77.28;99282.80;423074;1304;108937;-41
2021/11/18 13:39:23;;;;;;;16.80;5.40;;;;;;;7.58;77.54;99270.79;422808;1304;99404;-41
2021/11/18 13:49:31;;;;;;;20.80;5.20;;;;;;;7.51;77.12;99273.08;422448;1306;111433;-40
2021/11/18 13:59:37;;;;;;;18.10;5.60;;;;;;;7.42;76.65;99284.45;422764;1304;108691;-40
2021/11/18 14:09:42;;;;;;;13.70;4.90;;;;;;;7.41;76.87;99295.98;422583;1306;100019;-41
2021/11/18 14:19:54;;;;;;;34.70;15.20;;;;;;;7.33;76.81;99296.42;422972;1303;108940;-41
2021/11/18 14:30:05;;;;;;;34.90;13.60;;;;;;;7.24;77.08;99304.04;422813;1303;99385;-41
2021/11/18 14:40:24;;;;;;;28.00;10.30;;;;;;;7.15;77.10;99295.20;422862;1303;112165;-41
2021/11/18 14:50:35;;;;;;;31.50;12.70;;;;;;;7.15;77.15;99304.64;422681;1303;107829;-41
2021/11/18 15:00:42;;;;;;;27.50;10.00;;;;;;;7.18;77.50;99304.33;422612;1303;98094;-41
2021/11/18 15:10:51;;;;;;;29.60;10.10;;;;;;;7.08;77.59;99306.40;422554;1305;108962;-41
2021/11/18 15:20:58;;;;;;;26.30;11.80;;;;;;;6.83;77.59;99294.49;422663;1305;99394;-41
2021/11/18 15:31:08;;;;;;;26.30;11.40;;;;;;;6.58;77.59;99301.38;422517;1305;112630;-40
2021/11/18 15:41:18;;;;;;;23.40;8.10;;;;;;;6.60;77.82;99305.73;422753;1306;108066;-40
2021/11/18 15:51:28;;;;;;;28.30;9.10;;;;;;;6.63;78.09;99319.38;422534;1306;98721;-41
2021/11/18 16:01:38;;;;;;;29.50;10.10;;;;;;;6.62;78.28;99306.10;422958;1304;107937;-41
2021/11/18 16:21:55;;;;;;;18.90;6.50;;;;;;;6.58;78.28;99309.91;422854;1304;98837;-41
2021/11/18 16:42:14;;;;;;;20.20;9.50;;;;;;;6.82;78.47;99296.05;422858;1304;98085;-41
2021/11/18 16:52:23;;;;;;;43.80;20.40;;;;;;;6.85;78.57;99295.80;422428;1305;112439;-40
2021/11/18 17:02:29;;;;;;;48.00;21.40;;;;;;;6.87;78.37;99306.30;422573;1306;107803;-41
2021/11/18 17:22:44;;;;;;;29.00;14.10;;;;;;;6.96;78.50;99339.05;422599;1306;108886;-40
2021/11/18 17:32:54;;;;;;;26.80;14.40;;;;;;;6.92;78.41;99342.27;422587;1304;98887;-41
2021/11/18 17:43:11;;;;;;;29.50;17.70;;;;;;;6.86;78.49;99309.88;422515;1304;111946;-40
2021/11/18 17:53:19;;;;;;;21.40;10.00;;;;;;;6.90;78.53;99318.74;422612;1305;109220;-42
2021/11/18 18:03:27;;;;;;;18.60;10.90;;;;;;;6.95;78.32;99323.11;422516;1305;99318;-41
2021/11/18 18:13:35;;;;;;;31.60;14.90;;;;;;;7.00;78.42;99310.16;422481;1306;112485;-41
2021/11/18 18:23:46;;;;;;;38.20;17.10;;;;;;;6.94;78.37;99291.84;422661;1309;109003;-41
2021/11/18 18:34:02;;;;;;;44.30;20.00;;;;;;;6.92;78.42;99298.98;422743;1306;99328;-41
2021/11/18 18:44:10;;;;;;;28.00;13.20;;;;;;;6.89;78.40;99293.84;422831;1304;112677;-42
2021/11/18 18:54:16;;;;;;;23.30;10.70;;;;;;;6.96;78.56;99282.19;422324;1305;107765;-41
2021/11/18 19:04:24;;;;;;;26.70;15.00;;;;;;;7.03;78.54;99285.11;422565;1305;99286;-42
2021/11/18 19:14:32;;;;;;;24.30;13.30;;;;;;;7.00;78.60;99278.42;422741;1306;109468;-41
2021/11/18 19:24:40;;;;;;;25.50;13.20;;;;;;;6.93;78.78;99262.67;422476;1304;99252;-43
2021/11/18 19:34:51;;;;;;;58.20;27.60;;;;;;;6.93;78.64;99263.11;422934;1304;112452;-41
2021/11/18 19:44:56;;;;;;;31.80;14.60;;;;;;;7.00;78.65;99258.88;422524;1306;108384;-40
2021/11/18 19:55:06;;;;;;;30.60;17.70;;;;;;;7.00;78.77;99244.32;422669;1306;99431;-40
2021/11/18 20:05:15;;;;;;;25.00;14.70;;;;;;;6.89;78.73;99235.61;422528;1304;107975;-41
2021/11/18 20:15:26;;;;;;;29.00;14.80;;;;;;;6.79;78.51;99234.85;422838;1306;99425;-42
2021/11/18 20:25:34;;;;;;;30.70;16.30;;;;;;;6.75;78.59;99230.73;422636;1309;112636;-41
2021/11/18 20:35:44;;;;;;;36.40;18.40;;;;;;;6.71;78.64;99229.86;422470;1306;108855;-41
2021/11/18 20:45:52;;;;;;;26.00;13.10;;;;;;;6.61;78.72;99218.30;422829;1306;99296;-41
2021/11/18 20:56:00;;;;;;;27.80;14.60;;;;;;;6.62;78.51;99195.74;422579;1306;109280;-41
2021/11/18 21:06:08;;;;;;;41.20;16.10;;;;;;;6.69;78.70;99192.05;422567;1306;98921;-40
2021/11/18 21:16:20;;;;;;;30.00;18.00;;;;;;;6.70;78.75;99177.91;422434;1306;112497;-41
2021/11/18 21:26:31;;;;;;;29.80;16.90;;;;;;;6.66;78.79;99177.88;422617;1312;108821;-40
2021/11/18 21:36:41;;;;;;;21.50;11.40;;;;;;;6.67;78.79;99161.38;422916;1310;98051;-40
2021/11/18 21:46:52;;;;;;;20.10;11.10;;;;;;;6.78;78.86;99164.20;422788;1305;107985;-41
2021/11/18 21:56:58;;;;;;;25.30;12.30;;;;;;;6.84;78.88;99158.00;422540;1311;98049;-41
2021/11/18 22:07:11;;;;;;;29.00;16.50;;;;;;;6.81;78.80;99142.06;422698;1304;112582;-41
2021/11/18 22:17:20;;;;;;;25.50;14.00;;;;;;;6.79;78.85;99151.67;422729;1305;108976;-40
2021/11/18 22:27:30;;;;;;;38.30;21.20;;;;;;;6.84;78.84;99145.42;422615;1304;99294;-41
2021/11/18 22:37:35;;;;;;;;;;;;;;;6.92;78.73;99132.44;422929;1307;107933;-42
2021/11/18 22:47:44;;;;;;;28.50;17.00;;;;;;;6.93;78.77;99123.90;422492;1307;99311;-41
2021/11/18 22:57:52;;;;;;;23.60;14.90;;;;;;;6.90;78.63;99112.56;422774;1309;111405;-39
2021/11/18 23:07:59;;;;;;;22.60;12.90;;;;;;;6.95;78.40;99090.22;422598;1304;107729;-40
2021/11/18 23:18:06;;;;;;;23.40;15.10;;;;;;;6.99;78.38;99071.39;422892;1304;99273;-40
2021/11/18 23:28:16;;;;;;;30.40;15.80;;;;;;;6.98;78.16;99060.83;422629;1307;108961;-42
2021/11/18 23:38:23;;;;;;;17.50;12.70;;;;;;;6.96;78.05;99047.15;422763;1304;99308;-41
2021/11/18 23:48:29;;;;;;;19.50;12.70;;;;;;;7.04;77.92;99034.99;422860;1304;112521;-41
2021/11/18 23:58:37;;;;;;;31.00;17.40;;;;;;;7.06;77.88;99022.02;422644;1304;108984;-41
